Terminal Aerodrome Forecast
Issued by NWS Omaha/Valley, NE

Home | Current Version | Previous Version | Text Only | Print | Product List | Glossary On
Versions: 1 2 3 4 5 6 7 8 9 10 11 12 13 14 15 16 17 18 19 20 21 22 23 24 25 26 27 28 29 30 31 32 33 34 35 36 37 38 39 40 41 42 43 44 45 46 47 48
712
FTUS43 KOAX 081418 AAA
TAFLNK
TAF AMD
KLNK 081418Z 0814/0912 33024G35KT P6SM OVC040
      TEMPO 0814/0817 5SM -SN OVC025
     FM081700 33028G38KT P6SM SCT030 BKN050
      TEMPO 0817/0820 BKN030
     FM090000 34015G25KT P6SM SCT025 BKN120
     FM090700 34014KT P6SM SKC=

USA.gov is the U.S. government's official web portal to all federal, state and local government web resources and services.